Time;durP1;ratioP1;P1;durP2;ratioP2;P2;SDS_P1;SDS_P2;PMS_P1;PMS_P2;Temp;Humidity;BMP_temperature;BMP_pressure;BME280_temperature;BME280_humidity;BME280_pressure;Samples;Min_cycle;Max_cycle;Signal;HPM_P1;HPM_P2
2021/03/09 08:03:41;;;;;;;6.55;3.35;;;;;;;;;;5098554;27;20387;-65
2021/03/09 08:06:08;;;;;;;8.82;3.92;;;;;;;;;;5098401;28;20057;-65
2021/03/09 08:08:43;;;;;;;7.20;3.83;;;;;;;;;;5085172;28;20035;-66
2021/03/09 08:11:28;;;;;;;11.55;4.20;;;;;;;;;;5081995;28;20017;-65
2021/03/09 08:14:13;;;;;;;12.55;4.70;;;;;;;;;;5078225;28;20066;-64
2021/03/09 08:16:41;;;;;;;7.03;3.60;;;;;;;;;;5073747;28;20373;-68
2021/03/09 08:19:09;;;;;;;8.32;4.07;;;;;;;;;;5081583;28;20069;-68
2021/03/09 08:21:47;;;;;;;8.43;4.10;;;;;;;;;;5081375;28;20118;-69
2021/03/09 08:24:12;;;;;;;13.80;4.00;;;;;;;;;;5091057;28;20027;-67
2021/03/09 08:26:38;;;;;;;6.55;4.00;;;;;;;;;;5107135;22;20025;-69
2021/03/09 08:29:15;;;;;;;8.18;3.95;;;;;;;;;;5048486;28;20045;-70
2021/03/09 08:31:40;;;;;;;6.47;3.80;;;;;;;;;;5079065;28;20123;-70
2021/03/09 08:34:06;;;;;;;8.45;4.40;;;;;;;;;;5087473;28;20533;-70
2021/03/09 08:36:34;;;;;;;4.65;2.95;;;;;;;;;;5084510;28;20024;-69
2021/03/09 08:39:00;;;;;;;8.82;3.88;;;;;;;;;;5066420;28;20366;-69
2021/03/09 08:41:26;;;;;;;10.65;3.85;;;;;;;;;;5064096;28;20021;-71
2021/03/09 08:44:01;;;;;;;8.60;4.82;;;;;;;;;;5064568;28;20024;-73
2021/03/09 08:46:26;;;;;;;10.85;4.55;;;;;;;;;;5043715;28;20028;-66
2021/03/09 08:48:54;;;;;;;10.05;4.93;;;;;;;;;;5066926;28;20017;-71
2021/03/09 08:51:29;;;;;;;12.20;4.43;;;;;;;;;;5067645;28;20017;-74
2021/03/09 08:53:54;;;;;;;8.18;4.03;;;;;;;;;;5066600;28;20024;-71
2021/03/09 08:56:19;;;;;;;9.88;4.00;;;;;;;;;;5067317;28;20461;-71
2021/03/09 08:58:45;;;;;;;9.52;4.28;;;;;;;;;;5067291;28;20454;-72
2021/03/09 09:01:21;;;;;;;9.13;4.38;;;;;;;;;;5066056;28;20024;-70
2021/03/09 09:03:46;;;;;;;8.73;3.45;;;;;;;;;;5065734;28;20028;-71
2021/03/09 09:06:12;;;;;;;7.18;2.92;;;;;;;;;;5062132;28;20473;-68
2021/03/09 09:08:37;;;;;;;7.50;3.92;;;;;;;;;;5056996;28;20075;-69
2021/03/09 09:11:04;;;;;;;8.50;3.42;;;;;;;;;;5060545;28;20013;-70
2021/03/09 09:13:30;;;;;;;9.73;3.38;;;;;;;;;;5059254;28;20020;-69
2021/03/09 09:15:55;;;;;;;8.30;3.53;;;;;;;;;;5052224;28;20019;-70
2021/03/09 09:18:21;;;;;;;6.50;3.55;;;;;;;;;;5059831;28;20037;-70
2021/03/09 09:20:47;;;;;;;7.93;3.25;;;;;;;;;;5061310;28;20024;-71
2021/03/09 09:23:18;;;;;;;9.77;3.65;;;;;;;;;;5046595;28;20029;-63
2021/03/09 09:25:45;;;;;;;12.38;3.88;;;;;;;;;;5049145;28;20059;-63
2021/03/09 09:28:20;;;;;;;8.50;3.53;;;;;;;;;;5036921;28;20060;-62
2021/03/09 09:30:47;;;;;;;6.63;3.50;;;;;;;;;;5033612;28;20026;-63
2021/03/09 09:33:12;;;;;;;9.45;3.92;;;;;;;;;;5038734;28;20018;-63
2021/03/09 09:35:40;;;;;;;8.35;4.10;;;;;;;;;;5043432;28;20036;-62
2021/03/09 09:38:07;;;;;;;7.80;3.85;;;;;;;;;;5034157;28;20013;-63
2021/03/09 09:40:34;;;;;;;6.82;3.17;;;;;;;;;;5032106;28;20517;-63
2021/03/09 09:43:03;;;;;;;7.40;4.20;;;;;;;;;;5030353;28;20034;-62
2021/03/09 09:45:29;;;;;;;8.20;3.85;;;;;;;;;;5031160;28;20021;-61
2021/03/09 09:47:54;;;;;;;7.40;4.00;;;;;;;;;;5032367;28;20033;-63
2021/03/09 09:50:20;;;;;;;7.47;3.55;;;;;;;;;;5031363;28;20040;-62
2021/03/09 09:52:56;;;;;;;6.28;3.58;;;;;;;;;;5023250;28;20110;-62
2021/03/09 09:55:23;;;;;;;7.20;3.90;;;;;;;;;;5030437;28;20009;-62
2021/03/09 09:57:51;;;;;;;9.23;4.50;;;;;;;;;;5030882;28;20017;-62
2021/03/09 10:00:18;;;;;;;8.52;3.75;;;;;;;;;;5036391;28;20033;-63
2021/03/09 10:02:44;;;;;;;6.07;3.88;;;;;;;;;;5032212;28;20044;-63
2021/03/09 10:05:19;;;;;;;6.45;3.65;;;;;;;;;;5038972;28;20025;-63
2021/03/09 10:07:44;;;;;;;6.65;3.90;;;;;;;;;;5040724;28;20017;-62
2021/03/09 10:10:10;;;;;;;7.63;3.95;;;;;;;;;;5041598;28;20465;-62
2021/03/09 10:12:36;;;;;;;7.53;3.70;;;;;;;;;;5039758;28;20072;-64
2021/03/09 10:15:03;;;;;;;7.88;3.88;;;;;;;;;;5027093;28;20045;-64
2021/03/09 10:17:28;;;;;;;8.25;4.15;;;;;;;;;;5019231;28;20434;-62
2021/03/09 10:19:55;;;;;;;8.40;4.78;;;;;;;;;;5028720;28;20021;-64
2021/03/09 10:22:21;;;;;;;8.13;3.90;;;;;;;;;;5032310;28;20370;-63
2021/03/09 10:24:47;;;;;;;7.80;4.40;;;;;;;;;;5041628;28;20029;-63
2021/03/09 10:29:48;;;;;;;8.07;4.70;;;;;;;;;;4753886;26;20046;-63
2021/03/09 10:32:15;;;;;;;9.65;4.90;;;;;;;;;;5010445;28;20022;-63
2021/03/09 10:34:42;;;;;;;7.80;4.43;;;;;;;;;;5011814;28;20041;-63
2021/03/09 10:37:09;;;;;;;6.07;4.10;;;;;;;;;;5027562;28;20037;-63
2021/03/09 10:39:36;;;;;;;11.05;6.88;;;;;;;;;;5026940;28;20172;-63
2021/03/09 10:42:12;;;;;;;8.70;4.50;;;;;;;;;;5012006;28;20088;-63
2021/03/09 10:44:37;;;;;;;7.38;3.40;;;;;;;;;;5027216;28;20385;-64
2021/03/09 10:47:04;;;;;;;8.52;4.45;;;;;;;;;;5010959;28;20093;-63
2021/03/09 10:49:30;;;;;;;10.38;4.60;;;;;;;;;;5011555;28;20021;-63
2021/03/09 10:52:00;;;;;;;6.15;3.75;;;;;;;;;;5011174;28;20081;-63
2021/03/09 10:54:26;;;;;;;7.03;4.47;;;;;;;;;;5010698;28;20060;-63
2021/03/09 10:56:52;;;;;;;7.20;4.43;;;;;;;;;;5011873;28;20018;-62
2021/03/09 10:59:17;;;;;;;8.35;3.85;;;;;;;;;;5010461;28;20052;-63
2021/03/09 11:01:43;;;;;;;7.93;4.63;;;;;;;;;;5010899;28;20061;-63
2021/03/09 11:04:08;;;;;;;5.85;3.67;;;;;;;;;;5011346;28;20033;-63
2021/03/09 11:06:34;;;;;;;7.28;4.38;;;;;;;;;;5010933;28;20037;-63
2021/03/09 11:08:59;;;;;;;7.75;4.85;;;;;;;;;;5010264;28;20754;-63
2021/03/09 11:11:25;;;;;;;7.95;4.57;;;;;;;;;;5009902;28;20029;-64
2021/03/09 11:13:50;;;;;;;6.22;3.63;;;;;;;;;;5011428;28;20018;-63
2021/03/09 11:16:16;;;;;;;8.15;4.35;;;;;;;;;;5011571;28;20513;-63
2021/03/09 11:18:43;;;;;;;6.47;3.88;;;;;;;;;;5026953;28;20099;-64
2021/03/09 11:21:08;;;;;;;7.63;4.00;;;;;;;;;;5020570;28;20113;-62
2021/03/09 11:23:34;;;;;;;6.72;3.80;;;;;;;;;;5009487;28;20116;-62
2021/03/09 11:26:00;;;;;;;8.30;4.20;;;;;;;;;;5013104;28;20030;-61
2021/03/09 11:28:25;;;;;;;8.23;4.88;;;;;;;;;;4993204;28;20050;-61
2021/03/09 11:30:51;;;;;;;5.65;3.70;;;;;;;;;;5008657;28;20360;-61
2021/03/09 11:33:16;;;;;;;7.72;4.32;;;;;;;;;;5008281;28;20598;-61
2021/03/09 11:35:42;;;;;;;9.50;4.18;;;;;;;;;;5009604;28;20014;-62
2021/03/09 11:38:10;;;;;;;7.95;4.65;;;;;;;;;;5008880;28;20373;-63
2021/03/09 11:40:39;;;;;;;9.45;4.90;;;;;;;;;;5006765;28;20079;-61
2021/03/09 11:43:05;;;;;;;8.85;4.45;;;;;;;;;;5010945;28;20528;-61
2021/03/09 11:45:31;;;;;;;8.00;4.55;;;;;;;;;;5010341;28;20030;-61
2021/03/09 11:48:01;;;;;;;5.95;4.30;;;;;;;;;;5009141;28;20072;-61
2021/03/09 11:50:28;;;;;;;6.03;4.03;;;;;;;;;;5010111;28;20427;-62
2021/03/09 11:52:54;;;;;;;8.45;4.35;;;;;;;;;;5009226;28;20024;-61
2021/03/09 11:55:19;;;;;;;8.45;4.38;;;;;;;;;;5014856;28;20028;-62
2021/03/09 11:57:44;;;;;;;11.52;4.40;;;;;;;;;;5016309;28;20028;-61
2021/03/09 12:00:10;;;;;;;7.63;4.07;;;;;;;;;;5014698;28;20071;-61
2021/03/09 12:02:36;;;;;;;9.52;4.30;;;;;;;;;;5012065;28;20026;-60
2021/03/09 12:05:18;;;;;;;7.15;4.07;;;;;;;;;;5012762;28;20025;-60
2021/03/09 12:07:53;;;;;;;10.82;4.55;;;;;;;;;;5013246;28;20057;-61
2021/03/09 12:10:38;;;;;;;13.98;5.10;;;;;;;;;;5008651;28;20034;-63
2021/03/09 12:13:04;;;;;;;6.05;3.80;;;;;;;;;;4998591;28;20038;-62
2021/03/09 12:15:29;;;;;;;9.82;5.90;;;;;;;;;;5010243;28;20049;-61
2021/03/09 12:17:55;;;;;;;7.95;4.60;;;;;;;;;;5008716;28;20037;-62
2021/03/09 12:20:20;;;;;;;6.72;4.53;;;;;;;;;;5008920;28;20053;-61
2021/03/09 12:22:46;;;;;;;7.38;4.47;;;;;;;;;;5010438;28;20490;-62
2021/03/09 12:25:11;;;;;;;6.40;4.10;;;;;;;;;;5009823;28;20025;-61
2021/03/09 12:27:37;;;;;;;7.07;4.38;;;;;;;;;;5009662;28;20014;-63
2021/03/09 12:30:04;;;;;;;8.57;5.05;;;;;;;;;;5010291;28;20038;-63
2021/03/09 12:32:30;;;;;;;9.43;4.32;;;;;;;;;;5010002;28;20044;-63
2021/03/09 12:34:55;;;;;;;7.70;4.45;;;;;;;;;;5011031;28;20526;-64
2021/03/09 12:37:20;;;;;;;7.75;4.10;;;;;;;;;;5009632;28;20029;-64
2021/03/09 12:39:46;;;;;;;7.63;4.22;;;;;;;;;;5009774;28;20062;-63
2021/03/09 12:42:11;;;;;;;7.47;4.80;;;;;;;;;;5010430;28;20030;-63
2021/03/09 12:44:36;;;;;;;12.38;5.20;;;;;;;;;;5010474;28;20026;-63
2021/03/09 12:47:02;;;;;;;8.65;4.70;;;;;;;;;;5015258;28;20018;-63
2021/03/09 12:49:28;;;;;;;9.13;4.82;;;;;;;;;;5009978;28;20370;-64
2021/03/09 12:51:53;;;;;;;6.85;4.15;;;;;;;;;;5011650;28;20522;-64
2021/03/09 12:54:18;;;;;;;8.73;4.22;;;;;;;;;;5010402;28;20022;-64
2021/03/09 12:56:44;;;;;;;7.00;4.30;;;;;;;;;;5014088;28;20396;-62
2021/03/09 12:59:09;;;;;;;9.82;4.60;;;;;;;;;;5002311;28;20054;-64
2021/03/09 13:01:35;;;;;;;8.15;4.63;;;;;;;;;;5011081;28;20569;-63
2021/03/09 13:04:00;;;;;;;8.13;4.57;;;;;;;;;;5019494;28;20093;-63
2021/03/09 13:06:25;;;;;;;8.98;4.75;;;;;;;;;;5021716;28;20462;-63
2021/03/09 13:08:52;;;;;;;9.35;4.85;;;;;;;;;;5019086;28;20029;-63
2021/03/09 13:11:17;;;;;;;12.45;5.55;;;;;;;;;;5031477;28;20014;-63
2021/03/09 13:13:42;;;;;;;9.77;5.35;;;;;;;;;;4993990;28;20044;-63
2021/03/09 13:16:08;;;;;;;14.18;4.97;;;;;;;;;;5010023;28;20053;-63
2021/03/09 13:18:33;;;;;;;9.73;4.82;;;;;;;;;;5012972;28;20572;-63
2021/03/09 13:20:59;;;;;;;11.63;7.63;;;;;;;;;;5018035;28;20425;-64
2021/03/09 13:23:24;;;;;;;10.90;6.13;;;;;;;;;;5013850;28;20038;-62
2021/03/09 13:25:49;;;;;;;8.32;4.50;;;;;;;;;;5013159;28;20018;-63
2021/03/09 13:39:39;;;;;;;7.82;4.60;;;;;;;;;;4972123;28;20200;-63
2021/03/09 13:42:05;;;;;;;10.00;4.57;;;;;;;;;;4973708;28;20121;-63
2021/03/09 13:44:31;;;;;;;8.52;4.18;;;;;;;;;;4956540;28;20027;-61
2021/03/09 13:46:57;;;;;;;7.95;4.38;;;;;;;;;;4973090;28;20375;-61
2021/03/09 13:49:22;;;;;;;13.20;5.05;;;;;;;;;;4984248;28;20030;-62
2021/03/09 13:51:48;;;;;;;10.95;4.72;;;;;;;;;;4973129;28;20058;-63
2021/03/09 13:54:13;;;;;;;7.63;4.75;;;;;;;;;;4974647;28;20128;-66
2021/03/09 13:56:38;;;;;;;8.38;4.50;;;;;;;;;;4975125;28;20041;-63
2021/03/09 13:59:04;;;;;;;9.63;4.53;;;;;;;;;;4974176;28;20022;-63
2021/03/09 14:01:29;;;;;;;8.65;4.28;;;;;;;;;;4981563;28;20093;-63
2021/03/09 14:03:54;;;;;;;10.10;5.47;;;;;;;;;;4968362;28;20045;-64
2021/03/09 14:06:20;;;;;;;9.95;4.45;;;;;;;;;;4977866;28;20014;-64
2021/03/09 14:08:45;;;;;;;8.48;4.30;;;;;;;;;;4981506;28;20065;-62
2021/03/09 14:11:11;;;;;;;9.77;4.32;;;;;;;;;;4981815;28;20023;-63
2021/03/09 14:13:36;;;;;;;10.45;6.00;;;;;;;;;;4976996;28;20037;-62
2021/03/09 14:16:02;;;;;;;10.45;4.80;;;;;;;;;;4972189;28;20027;-63
2021/03/09 14:18:27;;;;;;;9.52;4.43;;;;;;;;;;4955910;28;20018;-64
2021/03/09 14:20:52;;;;;;;9.20;4.72;;;;;;;;;;4961202;28;20014;-63
2021/03/09 14:23:18;;;;;;;8.63;4.20;;;;;;;;;;4973241;28;20121;-63
2021/03/09 14:25:43;;;;;;;12.75;5.68;;;;;;;;;;4955497;28;20371;-64
2021/03/09 14:30:42;;;;;;;9.45;4.80;;;;;;;;;;5019295;28;20441;-67
2021/03/09 14:33:08;;;;;;;10.02;4.97;;;;;;;;;;5019318;28;20020;-67
2021/03/09 14:35:33;;;;;;;12.15;4.60;;;;;;;;;;5012915;28;20080;-68
2021/03/09 14:37:58;;;;;;;10.82;5.05;;;;;;;;;;4992338;28;20124;-70
2021/03/09 14:40:24;;;;;;;8.75;5.15;;;;;;;;;;5010059;28;20014;-66
2021/03/09 14:42:51;;;;;;;15.63;6.20;;;;;;;;;;5027114;28;20108;-67
2021/03/09 14:45:16;;;;;;;10.30;5.30;;;;;;;;;;4993065;28;20500;-67
2021/03/09 14:47:44;;;;;;;14.68;6.50;;;;;;;;;;5014357;28;20056;-62
2021/03/09 14:50:10;;;;;;;14.63;6.10;;;;;;;;;;5034531;28;20029;-61
2021/03/09 14:52:37;;;;;;;8.25;4.28;;;;;;;;;;5020915;28;20025;-61
2021/03/09 14:55:04;;;;;;;27.55;7.32;;;;;;;;;;5002056;28;20021;-63
2021/03/09 14:57:29;;;;;;;11.52;4.70;;;;;;;;;;5010507;28;20021;-62
2021/03/09 14:59:55;;;;;;;13.00;6.07;;;;;;;;;;5010228;28;20040;-62
2021/03/09 15:02:20;;;;;;;11.48;5.00;;;;;;;;;;5010521;28;20029;-62
2021/03/09 15:04:45;;;;;;;7.70;4.80;;;;;;;;;;5010386;28;20377;-63
2021/03/09 15:07:11;;;;;;;10.63;5.40;;;;;;;;;;5011864;28;20032;-63
2021/03/09 15:09:36;;;;;;;8.75;4.63;;;;;;;;;;5011626;28;20390;-63
2021/03/09 15:12:01;;;;;;;9.50;5.70;;;;;;;;;;5010202;28;20014;-63
2021/03/09 15:14:27;;;;;;;12.13;5.07;;;;;;;;;;5011079;28;20022;-62
2021/03/09 15:16:53;;;;;;;11.65;5.78;;;;;;;;;;5020769;28;20524;-63
2021/03/09 15:19:18;;;;;;;14.13;5.00;;;;;;;;;;5010529;28;20671;-63
2021/03/09 15:21:44;;;;;;;10.75;5.05;;;;;;;;;;5010923;28;20037;-63
2021/03/09 15:24:10;;;;;;;9.95;4.22;;;;;;;;;;5012373;28;20049;-63
